Time;durP1;ratioP1;P1;durP2;ratioP2;P2;SDS_P1;SDS_P2;PMS_P1;PMS_P2;Temp;Humidity;BMP_temperature;BMP_pressure;BME280_temperature;BME280_humidity;BME280_pressure;Samples;Min_cycle;Max_cycle;Signal;HPM_P1;HPM_P2
2022/12/09 00:00:31;;;;;;;9.70;8.80;;;;;;;21.52;38.36;94882.94;6284204;27;103607;-65
2022/12/09 00:03:34;;;;;;;9.10;8.30;;;;;;;21.52;38.53;94864.28;6282035;27;104006;-64
2022/12/09 00:06:39;;;;;;;9.23;8.53;;;;;;;21.52;38.64;94909.56;6287926;27;103062;-64
2022/12/09 00:09:42;;;;;;;8.60;7.90;;;;;;;21.50;38.48;94890.41;6287391;27;102809;-65
2022/12/09 00:12:45;;;;;;;9.40;8.60;;;;;;;21.52;38.69;94882.94;6277755;27;103319;-66
2022/12/09 00:15:48;;;;;;;8.87;8.07;;;;;;;21.51;38.64;94908.00;6288089;27;104485;-65
2022/12/09 00:18:52;;;;;;;8.27;7.53;;;;;;;21.52;38.45;94906.09;6288605;27;103094;-64
2022/12/09 00:21:57;;;;;;;8.77;7.97;;;;;;;21.52;38.27;94904.22;6288173;27;103927;-65
2022/12/09 00:25:00;;;;;;;8.27;7.67;;;;;;;21.52;38.21;94909.56;6277096;27;103011;-65
2022/12/09 00:28:03;;;;;;;8.00;7.30;;;;;;;21.54;38.21;94921.78;6288037;27;104171;-65
2022/12/09 00:31:07;;;;;;;7.80;7.20;;;;;;;21.52;38.26;94909.56;6286688;27;102949;-65
2022/12/09 00:34:12;;;;;;;8.30;7.70;;;;;;;21.50;38.35;94919.69;6288237;27;105159;-64
2022/12/09 00:37:17;;;;;;;8.67;8.00;;;;;;;21.51;38.37;94920.50;6277475;27;103988;-64
2022/12/09 00:40:20;;;;;;;8.20;7.50;;;;;;;21.51;38.11;94920.50;6287807;27;104002;-65
2022/12/09 00:43:23;;;;;;;7.57;6.97;;;;;;;21.43;38.30;94903.38;6287962;27;106573;-64
2022/12/09 00:46:27;;;;;;;7.23;6.73;;;;;;;21.50;38.02;94901.06;6282946;27;103003;-65
2022/12/09 00:49:30;;;;;;;7.80;7.20;;;;;;;21.47;38.41;94903.56;6282337;27;103028;-66
2022/12/09 00:52:35;;;;;;;8.50;7.90;;;;;;;21.50;38.10;94910.94;6287968;27;104462;-66
2022/12/09 00:55:38;;;;;;;8.27;7.57;;;;;;;21.49;38.08;94891.50;6286662;27;103163;-66
2022/12/09 00:58:41;;;;;;;8.20;7.60;;;;;;;21.47;37.82;94896.34;6277489;27;103412;-66
2022/12/09 01:01:44;;;;;;;8.00;7.40;;;;;;;21.49;38.30;94912.81;6287173;27;104251;-66
2022/12/09 01:04:50;;;;;;;7.53;6.93;;;;;;;21.51;38.27;94904.53;6287156;27;102977;-66
2022/12/09 01:07:55;;;;;;;7.90;7.30;;;;;;;21.36;37.65;94889.72;6285887;27;103108;-64
2022/12/09 01:10:58;;;;;;;7.67;6.97;;;;;;;21.40;38.16;94881.91;6275612;27;103180;-65
2022/12/09 01:14:03;;;;;;;7.27;6.67;;;;;;;21.48;38.12;94903.25;6287426;27;105883;-65
2022/12/09 01:17:06;;;;;;;8.90;8.10;;;;;;;21.50;37.94;94917.03;6286194;27;103868;-65
2022/12/09 01:20:10;;;;;;;8.40;7.70;;;;;;;21.49;37.85;94894.16;6287129;27;103134;-64
2022/12/09 01:23:15;;;;;;;7.27;6.67;;;;;;;21.51;38.08;94889.34;6275212;27;103068;-63
2022/12/09 01:26:18;;;;;;;7.20;6.60;;;;;;;21.40;38.00;94873.94;6286466;27;103080;-65
2022/12/09 01:29:21;;;;;;;7.60;7.00;;;;;;;21.43;37.53;94871.44;6278266;27;104212;-65
2022/12/09 01:32:25;;;;;;;8.00;7.30;;;;;;;21.46;37.99;94892.13;6276597;27;103337;-65
2022/12/09 01:35:28;;;;;;;7.40;6.80;;;;;;;21.49;37.76;94888.06;6276919;27;106522;-65
2022/12/09 01:38:33;;;;;;;7.53;6.93;;;;;;;21.49;37.66;94880.84;6285315;27;104094;-65
2022/12/09 01:41:36;;;;;;;7.47;6.77;;;;;;;21.49;37.86;94888.84;6286835;27;103550;-65
2022/12/09 01:44:39;;;;;;;7.63;6.97;;;;;;;21.49;38.11;94886.19;6276310;27;106796;-65
2022/12/09 01:47:42;;;;;;;7.43;6.73;;;;;;;21.49;37.88;94882.72;6285694;27;103139;-65
2022/12/09 01:50:50;;;;;;;7.53;6.87;;;;;;;21.50;38.02;94897.63;6286125;27;103211;-65
2022/12/09 01:53:56;;;;;;;7.20;6.67;;;;;;;21.40;37.92;94871.28;6285629;27;102737;-65
2022/12/09 01:56:59;;;;;;;7.10;6.60;;;;;;;21.47;38.03;94877.72;6275935;27;103059;-65
2022/12/09 02:00:02;;;;;;;6.67;6.17;;;;;;;21.50;37.85;94876.31;6284893;27;103187;-65
2022/12/09 02:03:07;;;;;;;6.53;6.00;;;;;;;21.50;37.58;94894.94;6285523;27;103230;-65
2022/12/09 02:06:10;;;;;;;7.37;6.77;;;;;;;21.50;38.12;94894.94;6283809;27;103350;-66
2022/12/09 02:09:15;;;;;;;7.70;7.00;;;;;;;21.50;37.98;94881.63;6278118;27;104363;-65
2022/12/09 02:12:30;;;;;;;7.30;6.70;;;;;;;21.48;38.09;94881.94;6285662;27;103103;-65
2022/12/09 02:15:42;;;;;;;7.23;6.63;;;;;;;21.48;38.03;94889.94;6286533;27;102983;-64
2022/12/09 02:18:51;;;;;;;6.83;6.30;;;;;;;21.49;38.12;94880.06;6272022;27;103065;-65
2022/12/09 02:21:58;;;;;;;7.47;6.87;;;;;;;21.48;37.62;94876.63;6285551;27;103079;-65
2022/12/09 02:25:12;;;;;;;7.20;6.60;;;;;;;21.49;37.84;94885.41;6268206;27;103055;-65
2022/12/09 02:28:34;;;;;;;7.53;6.83;;;;;;;21.40;37.85;94874.72;6285207;27;103168;-64
2022/12/09 02:31:56;;;;;;;7.83;7.20;;;;;;;21.48;37.90;94876.63;6270364;27;104181;-67
2022/12/09 02:35:08;;;;;;;7.23;6.63;;;;;;;21.48;37.76;94870.50;6286240;27;105854;-64
2022/12/09 02:38:14;;;;;;;6.63;6.03;;;;;;;21.49;37.91;94877.41;6285483;27;104283;-65
2022/12/09 02:41:21;;;;;;;7.00;6.50;;;;;;;21.44;37.93;94873.00;6275675;27;104477;-65
2022/12/09 02:44:27;;;;;;;7.27;6.67;;;;;;;21.46;37.91;94870.81;6285470;27;103239;-65
2022/12/09 02:47:32;;;;;;;6.87;6.27;;;;;;;21.44;37.54;94865.03;6286257;27;104040;-65
2022/12/09 02:50:40;;;;;;;6.47;5.97;;;;;;;21.48;38.03;94881.94;6285986;27;106462;-65
2022/12/09 02:53:48;;;;;;;7.20;6.60;;;;;;;21.41;37.52;94878.16;6274856;27;103118;-65
2022/12/09 02:56:55;;;;;;;6.33;5.83;;;;;;;21.47;37.65;94885.72;6285538;27;103648;-64
2022/12/09 02:59:59;;;;;;;7.10;6.50;;;;;;;21.48;37.62;94905.91;6285755;27;103004;-64
2022/12/09 03:03:06;;;;;;;6.60;6.10;;;;;;;21.44;37.33;94894.31;6269274;27;102995;-65
2022/12/09 03:06:16;;;;;;;6.03;5.53;;;;;;;21.45;37.88;94884.44;6275210;27;103032;-65
2022/12/09 03:09:25;;;;;;;7.27;6.70;;;;;;;21.47;37.66;94892.91;6283067;27;103859;-65
2022/12/09 03:12:32;;;;;;;6.50;5.93;;;;;;;21.44;37.53;94880.22;6284238;27;103031;-65
2022/12/09 03:15:38;;;;;;;7.10;6.50;;;;;;;21.46;37.52;94884.13;6277594;27;104318;-65
2022/12/09 03:18:45;;;;;;;6.53;6.03;;;;;;;21.46;37.35;94897.44;6289484;27;103250;-65
2022/12/09 03:21:55;;;;;;;7.37;6.63;;;;;;;21.48;37.76;94902.47;6283145;27;103778;-66
2022/12/09 03:25:04;;;;;;;6.67;6.17;;;;;;;21.47;37.39;94893.69;6289683;27;103225;-65
2022/12/09 03:28:13;;;;;;;6.73;6.20;;;;;;;21.46;37.59;94884.13;6279680;27;103237;-66
2022/12/09 03:31:21;;;;;;;7.10;6.60;;;;;;;21.47;37.58;94885.72;6283282;27;103161;-66
2022/12/09 03:34:30;;;;;;;6.00;5.53;;;;;;;21.39;37.65;94875.81;6282595;27;103343;-66
2022/12/09 03:37:37;;;;;;;6.70;6.20;;;;;;;21.40;37.61;94874.72;6285256;27;103022;-66
2022/12/09 03:40:42;;;;;;;6.90;6.40;;;;;;;21.46;37.42;94878.03;6283032;27;105760;-65
2022/12/09 03:43:51;;;;;;;7.30;6.70;;;;;;;21.44;37.42;94891.66;6287726;27;103033;-64
2022/12/09 03:46:55;;;;;;;6.97;6.33;;;;;;;21.45;37.38;94887.88;6288620;27;103430;-64
2022/12/09 03:49:58;;;;;;;7.00;6.37;;;;;;;21.41;37.61;94867.50;6278735;27;103152;-64
2022/12/09 03:53:06;;;;;;;6.77;6.27;;;;;;;21.45;37.52;94871.91;6288509;27;103200;-64
2022/12/09 03:56:15;;;;;;;6.53;6.03;;;;;;;21.44;37.50;94865.03;6288810;27;104070;-64
2022/12/09 03:59:19;;;;;;;6.47;5.97;;;;;;;21.45;37.43;94877.25;6271544;27;103014;-64
2022/12/09 04:02:22;;;;;;;6.17;5.67;;;;;;;21.47;37.59;94882.25;6276507;27;103013;-64
2022/12/09 04:05:26;;;;;;;6.80;6.30;;;;;;;21.45;37.69;94890.56;6288990;27;106858;-65
2022/12/09 04:08:31;;;;;;;6.30;5.80;;;;;;;21.47;37.66;94900.91;6286832;27;103073;-63
2022/12/09 04:11:34;;;;;;;6.27;5.77;;;;;;;21.45;37.56;94903.06;6287170;27;102848;-66
2022/12/09 04:14:37;;;;;;;6.57;6.07;;;;;;;21.42;37.36;94893.03;6277140;27;103617;-64
2022/12/09 04:17:40;;;;;;;7.23;6.63;;;;;;;21.44;37.66;94901.50;6286685;27;103098;-65
2022/12/09 04:20:44;;;;;;;6.23;5.73;;;;;;;21.44;37.39;94894.31;6286709;27;103000;-65
2022/12/09 04:23:48;;;;;;;6.60;6.10;;;;;;;21.46;37.11;94897.44;6281167;27;103244;-64
2022/12/09 04:26:52;;;;;;;6.57;6.07;;;;;;;21.46;37.21;94892.13;6284493;27;103947;-64
2022/12/09 04:29:55;;;;;;;9.67;8.90;;;;;;;21.48;37.81;94886.50;6286666;27;104104;-68
2022/12/09 04:32:59;;;;;;;7.60;7.03;;;;;;;21.47;37.58;94891.03;6286655;27;104274;-70
2022/12/09 04:36:05;;;;;;;8.73;7.67;;;;;;;21.47;37.91;94890.25;6276086;27;104468;-68
2022/12/09 04:39:09;;;;;;;8.60;7.90;;;;;;;21.45;37.97;94887.88;6286959;27;103530;-68
2022/12/09 04:42:12;;;;;;;9.20;8.50;;;;;;;21.45;38.06;94887.09;6287210;27;103026;-68
2022/12/09 04:45:15;;;;;;;9.53;8.73;;;;;;;21.43;37.92;94898.06;6286728;27;105926;-68
2022/12/09 04:48:19;;;;;;;9.87;8.97;;;;;;;21.45;37.74;94889.75;6275886;27;103015;-68
2022/12/09 04:51:22;;;;;;;10.47;9.57;;;;;;;21.44;38.11;94896.19;6285829;27;102978;-64
2022/12/09 04:54:26;;;;;;;11.30;10.20;;;;;;;21.42;37.87;94885.84;6288011;27;103854;-63
2022/12/09 04:57:30;;;;;;;12.90;11.70;;;;;;;21.39;37.98;94878.47;6284597;27;103060;-63
2022/12/09 05:00:33;;;;;;;13.77;12.57;;;;;;;21.41;37.98;94886.16;6274258;27;103037;-63
2022/12/09 05:03:36;;;;;;;14.07;12.77;;;;;;;21.40;37.97;94888.03;6286914;27;103143;-63
2022/12/09 05:06:40;;;;;;;14.80;13.40;;;;;;;21.45;38.38;94900.41;6287691;27;103971;-63
2022/12/09 05:09:45;;;;;;;15.23;13.60;;;;;;;21.44;38.25;94893.53;6281391;27;103151;-63
2022/12/09 05:12:48;;;;;;;14.40;12.70;;;;;;;21.57;38.38;94907.84;6285495;27;103234;-63
2022/12/09 05:15:52;;;;;;;14.73;13.33;;;;;;;21.57;39.67;94905.97;6286606;27;102967;-63
2022/12/09 05:18:55;;;;;;;15.20;13.50;;;;;;;21.61;39.69;94901.59;6287661;27;104399;-63
2022/12/09 05:21:59;;;;;;;15.77;14.10;;;;;;;21.63;40.79;94894.09;6276297;27;103037;-66
2022/12/09 05:25:04;;;;;;;16.10;14.40;;;;;;;21.58;40.67;94883.56;6286337;27;102888;-65
2022/12/09 05:28:07;;;;;;;18.90;14.47;;;;;;;21.58;40.44;94890.78;6286364;27;103975;-63
2022/12/09 05:31:13;;;;;;;15.83;14.20;;;;;;;21.55;40.30;94886.84;6286227;27;103487;-64
2022/12/09 05:34:17;;;;;;;14.40;12.90;;;;;;;21.46;40.23;94886.78;6277467;27;104640;-65
2022/12/09 05:37:21;;;;;;;14.80;12.80;;;;;;;21.49;39.86;94894.16;6284798;27;103328;-64
2022/12/09 05:40:25;;;;;;;17.30;13.07;;;;;;;21.52;40.32;94906.91;6285489;27;103000;-64
2022/12/09 05:43:28;;;;;;;14.33;13.00;;;;;;;21.51;40.08;94917.84;6280898;27;104181;-63
2022/12/09 05:46:32;;;;;;;14.30;12.90;;;;;;;21.52;39.49;94920.22;6279876;27;103383;-65
2022/12/09 05:49:37;;;;;;;14.90;13.50;;;;;;;21.48;39.53;94916.56;6284291;27;102963;-64
2022/12/09 05:52:41;;;;;;;13.87;12.57;;;;;;;21.51;39.25;94928.50;6286075;27;103001;-65
2022/12/09 05:55:45;;;;;;;14.50;13.20;;;;;;;21.48;39.17;94924.53;6277978;27;102928;-65
2022/12/09 05:58:49;;;;;;;13.37;12.17;;;;;;;21.49;39.43;94920.78;6286146;27;103002;-63
2022/12/09 06:01:53;;;;;;;15.57;12.57;;;;;;;21.50;39.15;94922.38;6287597;27;105214;-63
2022/12/09 06:04:57;;;;;;;14.33;12.87;;;;;;;21.50;39.21;94911.72;6286677;27;103081;-65
2022/12/09 06:08:00;;;;;;;13.03;11.70;;;;;;;21.50;38.72;94906.38;6277820;27;103253;-65
2022/12/09 06:11:12;;;;;;;14.93;13.40;;;;;;;21.50;38.97;94914.38;6286168;27;103416;-66
2022/12/09 06:14:16;;;;;;;13.20;11.83;;;;;;;21.50;38.60;94901.06;6286859;27;104148;-64
2022/12/09 06:17:19;;;;;;;13.93;12.53;;;;;;;21.52;38.94;94914.09;6285708;27;104160;-64
2022/12/09 06:20:23;;;;;;;13.13;11.83;;;;;;;21.49;38.58;94912.03;6277096;27;104056;-65
2022/12/09 06:23:27;;;;;;;13.97;12.47;;;;;;;21.49;38.53;94907.47;6286259;27;103031;-65
2022/12/09 06:26:31;;;;;;;16.30;12.57;;;;;;;21.44;38.61;94912.94;6286123;27;104365;-65
2022/12/09 06:29:35;;;;;;;12.70;11.40;;;;;;;21.50;38.83;94925.03;6276078;27;103355;-65
2022/12/09 06:32:38;;;;;;;12.90;11.60;;;;;;;21.50;38.80;94926.91;6285574;27;103383;-65
2022/12/09 06:35:42;;;;;;;13.33;11.87;;;;;;;21.51;38.36;94929.28;6285411;27;103070;-68
2022/12/09 06:38:45;;;;;;;15.63;11.37;;;;;;;21.47;38.58;94922.97;6286200;27;102947;-64
2022/12/09 06:41:50;;;;;;;13.37;12.07;;;;;;;21.50;38.59;94930.34;6275464;27;102978;-65
2022/12/09 06:44:53;;;;;;;12.63;11.43;;;;;;;21.52;38.21;94933.53;6286295;27;103244;-65
2022/12/09 06:47:57;;;;;;;11.77;10.67;;;;;;;21.51;38.28;94942.59;6286417;27;103254;-65
2022/12/09 06:51:00;;;;;;;11.97;10.83;;;;;;;21.51;38.32;94942.59;6290455;27;104864;-65
2022/12/09 06:54:05;;;;;;;12.13;11.03;;;;;;;21.51;38.16;94939.16;6279217;27;103054;-65
2022/12/09 06:57:10;;;;;;;13.30;12.00;;;;;;;21.47;38.37;94935.50;6289529;27;103046;-65
2022/12/09 07:00:15;;;;;;;11.87;10.77;;;;;;;21.52;38.36;94936.19;6290474;27;105724;-66
2022/12/09 07:03:18;;;;;;;12.97;11.10;;;;;;;21.56;38.47;94936.34;6284771;27;102770;-65
2022/12/09 07:06:26;;;;;;;11.60;10.50;;;;;;;21.61;38.75;94941.53;6285056;27;103063;-65
2022/12/09 07:09:30;;;;;;;11.53;10.47;;;;;;;21.65;38.54;94939.06;6290106;27;102896;-64
2022/12/09 07:12:35;;;;;;;12.57;11.37;;;;;;;21.63;38.97;94941.22;6289726;27;103072;-64
2022/12/09 07:15:38;;;;;;;12.00;10.87;;;;;;;21.59;39.00;94930.41;6279973;27;103222;-65
2022/12/09 07:18:41;;;;;;;11.97;10.60;;;;;;;21.63;39.58;94942.03;6288816;27;103346;-67
2022/12/09 07:21:45;;;;;;;12.40;11.10;;;;;;;21.64;39.68;94956.13;6289696;27;103425;-66
2022/12/09 07:24:48;;;;;;;12.30;11.13;;;;;;;21.63;39.37;94957.22;6289983;27;104076;-65
2022/12/09 07:27:53;;;;;;;11.30;10.30;;;;;;;21.62;39.26;94939.66;6278110;27;102756;-64
2022/12/09 07:30:57;;;;;;;12.30;10.70;;;;;;;21.63;39.45;94944.69;6289641;27;107043;-65
2022/12/09 07:34:01;;;;;;;13.70;12.30;;;;;;;21.64;39.74;94950.78;6289367;27;104004;-65
2022/12/09 07:37:05;;;;;;;12.00;10.90;;;;;;;21.63;38.98;94930.59;6284171;27;103166;-67
2022/12/09 07:40:08;;;;;;;13.03;11.33;;;;;;;21.66;39.55;94940.63;6283948;27;104199;-65
2022/12/09 07:43:13;;;;;;;12.40;11.30;;;;;;;21.62;39.42;94945.00;6289473;27;103162;-65
2022/12/09 07:46:18;;;;;;;12.87;11.40;;;;;;;21.58;39.40;94938.72;6289508;27;104177;-65
2022/12/09 07:49:22;;;;;;;13.37;12.13;;;;;;;21.57;39.38;94931.81;6278656;27;104008;-65
2022/12/09 07:52:25;;;;;;;12.27;11.10;;;;;;;21.56;39.18;94946.22;6289620;27;103357;-65
2022/12/09 07:55:29;;;;;;;12.73;11.53;;;;;;;21.51;39.08;94939.94;6288640;27;103547;-66
2022/12/09 07:58:34;;;;;;;12.80;11.60;;;;;;;21.53;38.70;94942.28;6289214;27;102695;-66
2022/12/09 08:01:39;;;;;;;12.70;11.40;;;;;;;21.52;39.15;94935.41;6276863;27;103043;-66
2022/12/09 08:04:42;;;;;;;12.63;11.43;;;;;;;21.53;38.96;94934.31;6288574;27;103054;-66
2022/12/09 08:07:46;;;;;;;12.43;11.43;;;;;;;21.54;38.72;94937.75;6288849;27;103336;-65
2022/12/09 08:10:49;;;;;;;13.40;12.27;;;;;;;21.52;38.81;94936.19;6286091;27;103295;-66
2022/12/09 08:13:56;;;;;;;12.70;11.50;;;;;;;21.52;38.99;94924.75;6282021;27;103721;-65
2022/12/09 08:17:00;;;;;;;12.27;11.07;;;;;;;21.52;38.67;94932.72;6288401;27;103110;-67
2022/12/09 08:20:04;;;;;;;14.73;12.37;;;;;;;21.54;38.66;94940.41;6287746;27;103179;-65
2022/12/09 08:23:08;;;;;;;12.60;11.40;;;;;;;21.55;38.82;94952.63;6278974;27;104815;-65
2022/12/09 08:26:13;;;;;;;12.10;10.97;;;;;;;21.54;39.02;94948.41;6288292;27;102940;-67
2022/12/09 08:29:18;;;;;;;12.07;10.97;;;;;;;21.54;38.62;94957.19;6288356;27;103066;-66
2022/12/09 08:32:21;;;;;;;12.40;11.27;;;;;;;21.56;38.30;94962.19;6288643;27;103347;-66
2022/12/09 08:35:28;;;;;;;11.07;10.13;;;;;;;21.55;38.41;94953.41;6277607;27;103061;-66
2022/12/09 08:38:31;;;;;;;13.00;11.80;;;;;;;21.57;38.39;94945.13;6288456;27;105035;-66
2022/12/09 08:41:36;;;;;;;11.40;10.40;;;;;;;21.57;38.79;94939.81;6288458;27;103261;-64
2022/12/09 08:44:43;;;;;;;12.27;11.17;;;;;;;21.57;38.28;94929.16;6286968;27;103056;-64
2022/12/09 08:47:46;;;;;;;12.90;11.60;;;;;;;21.58;38.78;94933.38;6280758;27;103005;-65
2022/12/09 08:50:50;;;;;;;12.40;11.30;;;;;;;21.59;38.06;94921.63;6287135;27;103312;-65
2022/12/09 08:53:53;;;;;;;11.70;10.70;;;;;;;21.58;38.72;94912.88;6287681;27;102969;-65
2022/12/09 08:56:57;;;;;;;11.17;10.27;;;;;;;21.59;38.42;94913.66;6277371;27;102807;-64
2022/12/09 09:00:03;;;;;;;11.77;10.50;;;;;;;21.62;38.29;94915.69;6287373;27;103299;-65
2022/12/09 09:03:06;;;;;;;11.20;10.10;;;;;;;21.63;38.80;94909.28;6287436;27;102947;-65
2022/12/09 09:06:10;;;;;;;11.47;10.47;;;;;;;21.65;38.14;94902.56;6287945;27;102944;-65
2022/12/09 09:09:14;;;;;;;12.07;10.97;;;;;;;21.68;38.53;94870.00;6276422;27;104781;-65
2022/12/09 09:12:18;;;;;;;12.97;10.57;;;;;;;21.71;38.29;94876.59;6287959;27;104003;-65
2022/12/09 09:15:23;;;;;;;11.70;10.50;;;;;;;21.71;38.03;94876.59;6287591;27;103022;-65
2022/12/09 09:18:27;;;;;;;11.10;10.10;;;;;;;21.70;38.03;94873.16;6287215;27;103650;-66
2022/12/09 09:21:32;;;;;;;10.90;9.83;;;;;;;21.70;38.07;94859.03;6275934;27;103061;-65
2022/12/09 09:24:35;;;;;;;11.23;10.23;;;;;;;21.68;37.97;94851.38;6287241;27;102818;-66
2022/12/09 09:27:39;;;;;;;11.37;10.47;;;;;;;21.69;37.99;94863.59;6287455;27;104011;-67
2022/12/09 09:30:44;;;;;;;11.10;10.17;;;;;;;21.67;38.40;94841.78;6281898;27;103230;-65
2022/12/09 09:33:48;;;;;;;10.63;9.73;;;;;;;21.65;38.45;94846.63;6283651;27;103486;-65
2022/12/09 09:36:53;;;;;;;10.93;10.00;;;;;;;21.63;37.98;94827.50;6286956;27;103204;-65
2022/12/09 09:39:56;;;;;;;11.60;10.37;;;;;;;21.71;38.58;94837.44;6286750;27;104009;-64
2022/12/09 09:43:01;;;;;;;11.20;10.20;;;;;;;21.66;38.50;94826.13;6276919;27;103986;-64
2022/12/09 09:46:06;;;;;;;11.07;10.10;;;;;;;21.68;38.27;94837.28;6286932;27;103116;-64
2022/12/09 09:49:14;;;;;;;10.63;9.67;;;;;;;21.68;38.26;94829.28;6286343;27;103021;-64
2022/12/09 09:52:19;;;;;;;10.53;9.63;;;;;;;21.69;37.99;94830.84;6285989;27;102992;-65
2022/12/09 09:55:33;;;;;;;10.83;9.90;;;;;;;21.68;38.16;94837.28;6276371;27;104127;-64
2022/12/09 09:58:42;;;;;;;10.73;9.73;;;;;;;21.68;37.97;94829.28;6286636;27;104107;-67
2022/12/09 10:01:56;;;;;;;10.57;9.67;;;;;;;21.69;38.38;94815.66;6286574;27;103565;-64
2022/12/09 10:05:10;;;;;;;10.63;9.73;;;;;;;21.69;38.28;94790.91;6276190;27;103375;-64
2022/12/09 10:08:28;;;;;;;10.70;9.60;;;;;;;21.69;37.97;94766.94;6285646;27;103331;-64
2022/12/09 10:11:39;;;;;;;10.83;9.83;;;;;;;21.72;38.00;94768.97;6286629;27;103291;-66
2022/12/09 10:14:51;;;;;;;10.93;10.00;;;;;;;21.71;38.29;94768.19;6286511;27;103022;-65
2022/12/09 10:18:08;;;;;;;10.33;9.43;;;;;;;21.73;38.18;94770.53;6275509;27;103214;-64
2022/12/09 10:21:16;;;;;;;10.20;9.20;;;;;;;21.73;37.81;94786.53;6287074;27;105074;-64
2022/12/09 10:24:27;;;;;;;10.37;9.47;;;;;;;21.74;37.93;94756.13;6284714;27;103080;-64
2022/12/09 10:27:41;;;;;;;10.43;9.43;;;;;;;21.69;38.46;94754.41;6278558;27;103165;-66
2022/12/09 10:30:44;;;;;;;10.20;9.30;;;;;;;21.74;38.22;94734.81;6285241;27;103196;-65
2022/12/09 10:33:49;;;;;;;9.70;8.90;;;;;;;21.72;38.21;94753.00;6285903;27;102796;-64
2022/12/09 10:36:54;;;;;;;11.20;10.20;;;;;;;21.74;38.21;94748.13;6286293;27;102988;-64
2022/12/09 10:40:05;;;;;;;9.90;8.90;;;;;;;21.70;37.80;94747.97;6275493;27;106598;-65
2022/12/09 10:43:36;;;;;;;10.23;9.33;;;;;;;21.69;37.82;94737.63;6285979;27;103178;-65
2022/12/09 10:46:41;;;;;;;10.03;9.13;;;;;;;21.68;38.09;94734.19;6285788;27;103292;-64
2022/12/09 10:49:48;;;;;;;10.07;9.27;;;;;;;21.65;38.36;94726.81;6281004;27;103114;-66
2022/12/09 10:52:52;;;;;;;10.00;9.10;;;;;;;21.56;38.16;94702.03;6279730;27;103371;-67
2022/12/09 10:55:57;;;;;;;10.03;9.13;;;;;;;21.59;38.18;94716.63;6285080;27;103135;-65
2022/12/09 10:59:11;;;;;;;10.90;9.80;;;;;;;21.64;38.18;94714.59;6285698;27;103129;-64
2022/12/09 11:02:19;;;;;;;9.80;8.90;;;;;;;21.64;38.21;94725.22;6275021;27;103023;-64
2022/12/09 11:05:27;;;;;;;10.50;9.50;;;;;;;21.63;37.93;94738.84;6285766;27;103309;-64
2022/12/09 11:08:31;;;;;;;9.97;9.03;;;;;;;21.62;38.19;94735.41;6285473;27;104114;-64
2022/12/09 11:11:40;;;;;;;10.37;9.37;;;;;;;21.51;38.09;94702.22;6285437;27;103574;-64
2022/12/09 11:14:50;;;;;;;11.53;10.53;;;;;;;21.61;38.44;94709.88;6275528;27;104558;-64
2022/12/09 11:17:57;;;;;;;10.03;9.03;;;;;;;21.60;38.00;94713.63;6285799;27;103162;-64
2022/12/09 11:21:05;;;;;;;10.73;9.73;;;;;;;21.61;38.47;94703.78;6286332;27;103003;-65
2022/12/09 11:24:20;;;;;;;10.20;9.30;;;;;;;21.61;38.13;94714.44;6279778;27;103564;-65
2022/12/09 11:27:28;;;;;;;10.03;9.13;;;;;;;21.61;38.09;94693.91;6282305;27;103283;-65
2022/12/09 11:30:34;;;;;;;9.70;8.90;;;;;;;21.60;38.52;94689.69;6285071;27;103255;-66
2022/12/09 11:33:47;;;;;;;9.57;8.67;;;;;;;21.61;37.96;94698.44;6285338;27;104076;-64
2022/12/09 11:36:55;;;;;;;10.37;9.47;;;;;;;21.61;38.45;94688.59;6278343;27;102989;-64
2022/12/09 11:39:58;;;;;;;9.87;9.07;;;;;;;21.63;37.86;94680.28;6289367;27;103130;-64
2022/12/09 11:43:02;;;;;;;9.80;8.90;;;;;;;21.61;38.14;94683.25;6289819;27;102616;-64
2022/12/09 11:46:18;;;;;;;9.80;8.90;;;;;;;21.61;38.27;94677.16;6288953;27;103566;-64
2022/12/09 11:49:22;;;;;;;11.30;10.30;;;;;;;21.62;38.51;94678.72;6281221;27;103291;-65
2022/12/09 11:52:29;;;;;;;9.97;9.07;;;;;;;21.64;38.51;94671.19;6289265;27;104424;-65
2022/12/09 11:55:33;;;;;;;10.70;9.60;;;;;;;21.62;38.18;94676.06;6289087;27;102997;-65
2022/12/09 11:58:42;;;;;;;10.50;9.40;;;;;;;21.60;38.40;94687.00;6278735;27;103120;-64
2022/12/09 12:01:52;;;;;;;11.23;10.27;;;;;;;21.57;37.71;94652.25;6288339;27;104329;-64
2022/12/09 12:05:02;;;;;;;9.20;8.40;;;;;;;21.62;38.39;94662.75;6288957;27;103049;-65
2022/12/09 12:08:16;;;;;;;10.17;9.17;;;;;;;21.62;38.29;94657.41;6288124;27;103396;-65
2022/12/09 12:11:27;;;;;;;10.30;9.37;;;;;;;21.62;38.15;94642.22;6279298;27;104000;-65
2022/12/09 12:14:30;;;;;;;9.30;8.50;;;;;;;21.57;38.19;94657.56;6288720;27;103142;-66
2022/12/09 12:17:41;;;;;;;10.37;9.37;;;;;;;21.59;38.33;94658.03;6288965;27;104269;-63
2022/12/09 12:20:59;;;;;;;10.03;9.13;;;;;;;21.62;38.04;94668.06;6284096;27;104160;-65
2022/12/09 12:24:23;;;;;;;10.20;9.30;;;;;;;21.62;38.27;94636.09;6283505;27;103137;-64
2022/12/09 12:27:38;;;;;;;9.53;8.73;;;;;;;21.60;38.35;94655.06;6288569;27;103065;-64
2022/12/09 12:30:49;;;;;;;9.30;8.40;;;;;;;21.59;38.28;94664.16;6287679;27;103361;-66
2022/12/09 12:34:07;;;;;;;10.33;9.33;;;;;;;21.60;38.03;94654.28;6278327;27;103323;-64
2022/12/09 12:37:38;;;;;;;9.70;8.80;;;;;;;21.59;38.18;94642.06;6288193;27;103230;-65
2022/12/09 12:40:52;;;;;;;8.43;7.73;;;;;;;21.52;38.52;94643.31;6288582;27;103063;-65
2022/12/09 12:47:48;;;;;;;9.10;8.23;;;;;;;21.62;38.19;94668.06;6184761;28;106280;-64
2022/12/09 12:51:02;;;;;;;9.40;8.60;;;;;;;21.50;38.10;94658.78;6184920;28;104198;-64
2022/12/09 12:54:20;;;;;;;9.87;9.00;;;;;;;21.59;38.09;94636.75;6288763;27;106618;-64
2022/12/09 12:57:34;;;;;;;9.07;8.20;;;;;;;21.58;38.37;94640.50;6277361;27;103146;-64
2022/12/09 13:00:43;;;;;;;9.90;8.90;;;;;;;21.59;38.39;94637.53;6287672;27;104130;-65
2022/12/09 13:03:57;;;;;;;10.43;9.43;;;;;;;21.59;38.32;94658.81;6287131;27;103059;-64
2022/12/09 13:07:06;;;;;;;9.13;8.37;;;;;;;21.56;37.97;94659.44;6277154;27;103140;-64
2022/12/09 13:10:19;;;;;;;10.27;9.37;;;;;;;21.56;38.00;94642.69;6287126;27;103192;-65
2022/12/09 13:13:29;;;;;;;8.93;8.13;;;;;;;21.57;38.42;94634.38;6287773;27;104468;-66
2022/12/09 13:16:36;;;;;;;9.63;8.77;;;;;;;21.51;38.13;94639.09;6287794;27;102807;-66
2022/12/09 13:19:42;;;;;;;9.70;8.80;;;;;;;21.51;38.21;94646.28;6277047;27;103233;-64
2022/12/09 13:22:51;;;;;;;8.93;8.20;;;;;;;21.47;38.53;94624.03;6286921;27;103453;-64
2022/12/09 13:26:05;;;;;;;8.87;7.97;;;;;;;21.57;38.05;94644.25;6287739;27;103080;-64
2022/12/09 13:29:28;;;;;;;9.63;8.83;;;;;;;21.58;38.40;94640.50;6281796;27;103059;-65
2022/12/09 13:33:13;;;;;;;8.70;7.90;;;;;;;21.59;38.21;94650.84;6286320;27;103138;-64
2022/12/09 13:36:21;;;;;;;9.13;8.43;;;;;;;21.58;38.14;94651.16;6286314;27;103250;-65
2022/12/09 13:39:57;;;;;;;9.00;8.10;;;;;;;21.58;38.08;94653.81;6287459;27;102984;-63
2022/12/09 13:43:09;;;;;;;9.37;8.47;;;;;;;21.55;38.32;94647.22;6280241;27;104678;-65
2022/12/09 13:46:21;;;;;;;8.37;7.63;;;;;;;21.59;38.46;94628.75;6286638;27;103248;-65
2022/12/09 13:49:26;;;;;;;9.57;8.60;;;;;;;21.61;38.61;94634.53;6287323;27;103022;-64
2022/12/09 13:52:54;;;;;;;9.13;8.33;;;;;;;21.60;38.53;94638.31;6276026;27;103692;-65
2022/12/09 13:56:01;;;;;;;9.10;8.30;;;;;;;21.61;38.31;94635.31;6268400;27;103632;-64
2022/12/09 13:59:38;;;;;;;10.30;9.30;;;;;;;21.57;38.21;94629.06;6285592;27;103432;-64
2022/12/09 14:02:53;;;;;;;9.03;8.23;;;;;;;21.57;38.51;94617.63;6284409;27;103495;-67
2022/12/09 14:06:00;;;;;;;9.93;9.03;;;;;;;21.58;38.36;94632.50;6280792;27;103011;-65
2022/12/09 14:09:15;;;;;;;9.70;8.80;;;;;;;21.58;38.66;94633.28;6286095;27;104093;-63
2022/12/09 14:12:51;;;;;;;8.87;8.07;;;;;;;21.58;38.27;94624.53;6286144;27;103081;-64
2022/12/09 14:16:16;;;;;;;9.70;8.70;;;;;;;21.57;38.31;94612.31;6276756;27;104274;-65
2022/12/09 14:19:52;;;;;;;10.00;8.77;;;;;;;21.58;38.28;94616.53;6292730;27;103402;-65
2022/12/09 14:23:13;;;;;;;10.13;9.13;;;;;;;21.52;38.53;94615.91;6311795;27;103081;-64
2022/12/09 14:26:33;;;;;;;10.13;9.23;;;;;;;21.56;38.24;94616.06;6302492;27;104009;-64